createdAt,value
2023-05-10T00:00:23.594Z,73.04
2023-05-10T00:05:46.615Z,74.08
2023-05-10T00:10:50.980Z,70.39
2023-05-10T00:15:56.259Z,69.97
2023-05-10T00:21:00.119Z,72.96
2023-05-10T00:26:04.163Z,74.04
2023-05-10T00:31:09.531Z,75.61
2023-05-10T00:36:13.508Z,86.32
2023-05-10T00:41:18.810Z,98.39
2023-05-10T00:46:25.250Z,100.00
2023-05-10T00:51:29.234Z,100.00
2023-05-10T00:56:33.692Z,100.00
2023-05-10T01:01:40.043Z,100.00
2023-05-10T01:06:44.479Z,100.00
2023-05-10T01:11:49.452Z,100.00
2023-05-10T01:16:55.406Z,100.00
2023-05-10T01:22:04.364Z,100.00
2023-05-10T01:27:28.683Z,100.00
2023-05-10T01:32:38.932Z,100.00
2023-05-10T01:37:47.568Z,100.00
2023-05-10T01:42:56.597Z,100.00
2023-05-10T01:48:08.542Z,100.00
2023-05-10T01:53:15.248Z,100.00
2023-05-10T01:58:23.328Z,100.00
2023-05-10T02:03:31.509Z,100.00
2023-05-10T02:08:38.213Z,100.00
2023-05-10T02:13:44.591Z,100.00
2023-05-10T02:18:52.546Z,100.00
2023-05-10T02:23:57.502Z,100.00
2023-05-10T02:29:04.385Z,100.00
2023-05-10T02:34:11.748Z,100.00
2023-05-10T02:39:17.812Z,100.00
2023-05-10T02:44:23.138Z,100.00
2023-05-10T02:49:28.539Z,100.00
2023-05-10T02:54:35.333Z,100.00
2023-05-10T02:59:39.240Z,100.00
2023-05-10T03:04:44.590Z,100.00
2023-05-10T03:09:51.130Z,100.00
2023-05-10T03:15:13.343Z,100.00
2023-05-10T03:20:26.767Z,100.00
2023-05-10T03:25:33.281Z,100.00
2023-05-10T03:30:39.421Z,100.00
2023-05-10T03:35:46.836Z,100.00
2023-05-10T03:40:51.804Z,100.00
2023-05-10T03:45:55.851Z,100.00
2023-05-10T03:51:01.276Z,100.00
2023-05-10T03:56:05.556Z,100.00
2023-05-10T04:01:09.632Z,100.00
2023-05-10T04:06:15.090Z,100.00
2023-05-10T04:11:19.127Z,100.00
2023-05-10T04:16:23.014Z,100.00
2023-05-10T04:21:28.455Z,99.45
2023-05-10T04:26:32.412Z,98.31
2023-05-10T04:31:37.367Z,98.34
2023-05-10T04:36:42.660Z,100.00
2023-05-10T04:41:46.593Z,98.76
2023-05-10T04:46:50.506Z,96.01
2023-05-10T04:51:56.075Z,98.22
2023-05-10T04:57:00.034Z,94.43
2023-05-10T05:02:04.583Z,92.66
2023-05-10T05:07:10.049Z,87.28
2023-05-10T05:12:15.338Z,83.31
2023-05-10T05:17:19.511Z,79.63
2023-05-10T05:22:28.517Z,83.84
2023-05-10T05:27:32.482Z,81.66
2023-05-10T05:32:36.853Z,78.37
2023-05-10T05:37:42.222Z,75.09
2023-05-10T05:42:46.156Z,76.47
2023-05-10T05:47:50.187Z,76.75
2023-05-10T05:52:55.534Z,74.60
2023-05-10T05:57:59.419Z,70.80
2023-05-10T06:03:03.501Z,64.58
2023-05-10T06:08:08.908Z,62.10
2023-05-10T06:13:12.959Z,65.11
2023-05-10T06:18:16.944Z,61.02
2023-05-10T06:23:23.277Z,57.12
2023-05-10T06:28:27.172Z,54.64
2023-05-10T06:33:31.112Z,49.33
2023-05-10T06:38:36.498Z,49.11
2023-05-10T06:43:42.288Z,50.82
2023-05-10T06:48:45.908Z,47.45
2023-05-10T06:53:51.222Z,48.14
2023-05-10T06:58:55.267Z,45.80
2023-05-10T07:03:59.160Z,44.63
2023-05-10T07:09:04.829Z,41.08
2023-05-10T07:14:08.821Z,43.08
2023-05-10T07:19:12.783Z,43.26
2023-05-10T07:24:18.730Z,42.86
2023-05-10T07:29:22.800Z,41.92
2023-05-10T07:34:26.773Z,42.67
2023-05-10T07:39:32.213Z,43.64
2023-05-10T07:44:36.163Z,42.03
2023-05-10T07:49:40.228Z,40.21
2023-05-10T07:54:45.674Z,42.73
2023-05-10T07:59:49.547Z,41.72
2023-05-10T08:04:55.015Z,40.91
2023-05-10T08:10:00.256Z,39.99
2023-05-10T08:15:04.745Z,42.81
2023-05-10T08:20:09.674Z,41.57
2023-05-10T08:25:17.052Z,41.36
2023-05-10T08:30:21.419Z,43.96
2023-05-10T08:35:25.553Z,41.01
2023-05-10T08:40:31.290Z,41.80
2023-05-10T08:45:35.797Z,40.99
2023-05-10T08:50:41.625Z,42.22
2023-05-10T08:55:47.273Z,41.71
2023-05-10T09:00:53.493Z,40.38
2023-05-10T09:05:57.931Z,39.73
2023-05-10T09:11:03.943Z,38.59
2023-05-10T09:16:20.481Z,39.05
2023-05-10T09:21:27.528Z,38.17
2023-05-10T09:26:33.001Z,36.37
2023-05-10T09:31:48.884Z,36.95
2023-05-10T09:36:56.318Z,36.62
2023-05-10T09:42:04.830Z,36.68
2023-05-10T09:47:08.794Z,36.91
2023-05-10T09:52:12.687Z,37.16
2023-05-10T09:57:23.476Z,35.36
2023-05-10T10:02:31.377Z,37.14
2023-05-10T10:07:36.328Z,37.44
2023-05-10T10:12:43.980Z,36.13
2023-05-10T10:17:48.936Z,37.63
2023-05-10T10:22:53.623Z,36.92
2023-05-10T10:28:11.488Z,37.31
2023-05-10T10:33:42.453Z,37.94
2023-05-10T10:39:02.313Z,37.35
2023-05-10T10:44:27.065Z,36.74
2023-05-10T10:49:34.628Z,36.64
2023-05-10T10:54:39.336Z,39.15
2023-05-10T10:59:48.049Z,37.40
2023-05-10T11:04:52.005Z,36.29
2023-05-10T11:10:06.121Z,37.18
2023-05-10T11:15:12.630Z,34.16
2023-05-10T11:20:17.276Z,33.76
2023-05-10T11:25:21.958Z,29.93
2023-05-10T11:30:27.601Z,29.89
2023-05-10T11:35:31.767Z,27.64
2023-05-10T11:40:36.081Z,28.19
2023-05-10T11:45:43.627Z,27.95
2023-05-10T11:50:48.485Z,27.28
2023-05-10T11:55:52.567Z,27.21
2023-05-10T12:00:58.483Z,27.46
2023-05-10T12:06:05.696Z,27.12
2023-05-10T12:11:11.409Z,27.68
2023-05-10T12:16:18.695Z,28.00
2023-05-10T12:21:23.524Z,27.77
2023-05-10T12:26:28.508Z,27.79
2023-05-10T12:31:33.917Z,27.17
2023-05-10T12:36:41.042Z,27.35
2023-05-10T12:41:45.290Z,28.11
2023-05-10T12:46:50.996Z,28.76
2023-05-10T12:51:55.117Z,28.31
2023-05-10T12:56:59.083Z,27.51
2023-05-10T13:02:04.508Z,29.58
2023-05-10T13:07:08.798Z,28.91
2023-05-10T13:12:12.966Z,27.73
2023-05-10T13:17:18.355Z,27.30
2023-05-10T13:22:32.581Z,30.75
2023-05-10T13:27:43.680Z,30.68
2023-05-10T13:32:49.149Z,31.42
2023-05-10T13:37:56.342Z,29.84
2023-05-10T13:43:00.364Z,29.44
2023-05-10T13:48:06.303Z,29.68
2023-05-10T13:53:10.389Z,31.66
2023-05-10T13:58:14.470Z,32.04
2023-05-10T14:03:19.969Z,30.88
2023-05-10T14:08:24.203Z,31.61
2023-05-10T14:13:28.628Z,31.38
2023-05-10T14:18:34.075Z,31.54
2023-05-10T14:23:38.062Z,31.72
2023-05-10T14:28:42.156Z,31.79
2023-05-10T14:33:47.790Z,30.98
2023-05-10T14:38:51.891Z,32.05
2023-05-10T14:43:56.367Z,31.32
2023-05-10T14:49:01.697Z,30.42
2023-05-10T14:54:05.750Z,30.02
2023-05-10T14:59:09.939Z,30.24
2023-05-10T15:04:17.562Z,29.42
2023-05-10T15:09:22.131Z,30.32
2023-05-10T15:14:26.167Z,29.60
2023-05-10T15:19:31.527Z,30.54
2023-05-10T15:24:35.492Z,30.39
2023-05-10T15:29:39.581Z,30.06
2023-05-10T15:34:45.094Z,29.14
2023-05-10T15:39:48.794Z,30.76
2023-05-10T15:45:12.420Z,30.12
2023-05-10T15:50:18.380Z,31.24
2023-05-10T15:55:22.353Z,31.27
2023-05-10T16:00:26.484Z,32.73
2023-05-10T16:05:33.688Z,34.46
2023-05-10T16:10:38.175Z,35.78
2023-05-10T16:15:42.116Z,36.52
2023-05-10T16:20:47.609Z,37.61
2023-05-10T16:25:51.495Z,38.16
2023-05-10T16:30:55.450Z,37.89
2023-05-10T16:36:00.756Z,36.45
2023-05-10T16:41:04.951Z,37.04
2023-05-10T16:46:12.523Z,38.13
2023-05-10T16:51:17.883Z,37.67
2023-05-10T16:56:23.415Z,37.89
2023-05-10T17:01:27.602Z,38.91
2023-05-10T17:06:33.923Z,41.67
2023-05-10T17:11:38.028Z,41.02
2023-05-10T17:16:42.820Z,41.51
2023-05-10T17:21:48.191Z,41.72
2023-05-10T17:26:53.325Z,42.01
2023-05-10T17:32:00.776Z,42.26
2023-05-10T17:37:06.404Z,40.92
2023-05-10T17:42:10.311Z,43.01
2023-05-10T17:47:14.336Z,43.00
2023-05-10T17:52:19.948Z,41.69
2023-05-10T17:57:24.800Z,42.85
2023-05-10T18:02:28.776Z,42.28
2023-05-10T18:07:35.913Z,45.22
2023-05-10T18:12:39.956Z,44.93
2023-05-10T18:17:44.124Z,46.32
2023-05-10T18:22:49.896Z,47.87
2023-05-10T18:27:53.976Z,47.05
2023-05-10T18:32:58.149Z,47.81
2023-05-10T18:38:03.687Z,48.51
2023-05-10T18:43:07.595Z,48.44
2023-05-10T18:48:11.522Z,47.25
2023-05-10T18:53:17.104Z,47.17
2023-05-10T18:58:21.214Z,48.72
2023-05-10T19:03:25.676Z,49.07
2023-05-10T19:08:31.229Z,48.75
2023-05-10T19:13:35.304Z,50.58
2023-05-10T19:18:40.584Z,51.30
2023-05-10T19:23:45.884Z,51.84
2023-05-10T19:28:52.456Z,52.53
2023-05-10T19:33:58.052Z,53.48
2023-05-10T19:39:05.989Z,53.72
2023-05-10T19:44:09.951Z,52.48
2023-05-10T19:49:13.880Z,50.94
2023-05-10T19:54:19.258Z,53.45
2023-05-10T19:59:23.516Z,52.68
2023-05-10T20:04:28.948Z,52.36
2023-05-10T20:09:34.727Z,51.80
2023-05-10T20:14:38.636Z,53.04
2023-05-10T20:19:42.817Z,52.36
2023-05-10T20:24:48.557Z,53.02
2023-05-10T20:29:52.375Z,57.59
2023-05-10T20:34:56.509Z,57.96
2023-05-10T20:40:02.066Z,58.82
2023-05-10T20:45:07.279Z,59.82
2023-05-10T20:50:12.366Z,61.74
2023-05-10T20:55:17.783Z,61.51
2023-05-10T21:00:22.294Z,61.88
2023-05-10T21:05:26.430Z,62.68
2023-05-10T21:10:31.782Z,62.52
2023-05-10T21:15:35.780Z,65.17
2023-05-10T21:20:39.674Z,67.04
2023-05-10T21:25:45.112Z,67.81
2023-05-10T21:30:49.099Z,67.84
2023-05-10T21:35:53.463Z,68.01
2023-05-10T21:40:58.738Z,67.79
2023-05-10T21:46:03.053Z,69.90
2023-05-10T21:51:07.166Z,71.69
2023-05-10T21:56:12.776Z,68.89
2023-05-10T22:01:18.052Z,69.88
2023-05-10T22:06:21.980Z,67.09
2023-05-10T22:11:27.510Z,70.16
2023-05-10T22:16:31.696Z,66.37
2023-05-10T22:21:35.714Z,71.12
2023-05-10T22:26:40.937Z,71.32
2023-05-10T22:31:44.906Z,74.20
2023-05-10T22:36:49.647Z,75.61
2023-05-10T22:41:54.922Z,79.36
2023-05-10T22:46:58.862Z,82.29
2023-05-10T22:52:02.865Z,84.70
2023-05-10T22:57:08.369Z,87.66
2023-05-10T23:02:14.329Z,90.87
2023-05-10T23:07:18.306Z,89.11
2023-05-10T23:12:23.533Z,87.36
2023-05-10T23:17:27.564Z,91.49
2023-05-10T23:22:31.515Z,94.78
2023-05-10T23:27:36.834Z,91.00
2023-05-10T23:32:40.721Z,92.66
2023-05-10T23:37:44.758Z,88.80
2023-05-10T23:42:50.160Z,89.93
2023-05-10T23:47:54.298Z,88.30
2023-05-10T23:52:58.333Z,91.61
2023-05-10T23:58:03.706Z,85.43
